Time;durP1;ratioP1;P1;durP2;ratioP2;P2;SDS_P1;SDS_P2;PMS_P1;PMS_P2;Temp;Humidity;BMP_temperature;BMP_pressure;BME280_temperature;BME280_humidity;BME280_pressure;Samples;Min_cycle;Max_cycle;Signal;HPM_P1;HPM_P2
2022/01/22 00:00:55;;;;;;;;;3.00;2.00;;;;;11.50;40.05;98414.97;6307085;22;101849;-77
2022/01/22 00:03:22;;;;;;;;;2.75;2.00;;;;;11.50;40.43;98419.56;6285655;22;102617;-77
2022/01/22 00:05:49;;;;;;;;;2.75;2.50;;;;;11.47;40.68;98404.59;6298467;22;102703;-77
2022/01/22 00:08:16;;;;;;;;;3.00;3.00;;;;;11.47;40.62;98404.59;6305572;22;104157;-77
2022/01/22 00:10:44;;;;;;;;;2.75;2.00;;;;;11.49;40.39;98409.75;6293411;22;102324;-77
2022/01/22 00:15:48;;;;;;;;;3.25;3.00;;;;;11.45;40.57;98406.66;6289803;22;102185;-76
2022/01/22 00:18:15;;;;;;;;;3.00;2.00;;;;;11.43;40.69;98408.75;6277762;22;103942;-77
2022/01/22 00:20:43;;;;;;;;;2.50;1.00;;;;;11.43;40.42;98408.75;6260220;22;102402;-77
2022/01/22 00:23:10;;;;;;;;;4.00;2.75;;;;;11.41;40.13;98413.53;6254997;22;102012;-77
2022/01/22 00:25:37;;;;;;;;;4.25;3.00;;;;;11.43;40.37;98410.63;6303453;22;102390;-77
2022/01/22 00:28:04;;;;;;;;;2.50;2.50;;;;;11.41;40.51;98413.53;6305743;22;103850;-76
2022/01/22 00:30:31;;;;;;;;;2.00;2.00;;;;;11.39;40.48;98406.69;6305049;22;102367;-77
2022/01/22 00:32:58;;;;;;;;;1.75;1.75;;;;;11.39;40.52;98407.50;6298468;22;102147;-77
2022/01/22 00:35:25;;;;;;;;;4.75;1.75;;;;;11.40;40.43;98406.44;6308008;22;102038;-77
2022/01/22 00:37:52;;;;;;;;;2.00;2.00;;;;;11.40;40.49;98406.44;6294598;22;108810;-77
2022/01/22 00:40:19;;;;;;;;;1.50;1.00;;;;;11.39;40.43;98410.19;6271352;22;102517;-76
2022/01/22 00:42:47;;;;;;;;;2.00;2.00;;;;;11.39;40.68;98412.91;6294675;22;102650;-76
2022/01/22 00:45:14;;;;;;;;;3.00;3.00;;;;;11.41;40.79;98407.28;6277824;22;102445;-76
2022/01/22 00:47:41;;;;;;;;;2.50;1.75;;;;;11.40;40.63;98397.50;6294338;22;104006;-76
2022/01/22 00:50:11;;;;;;;;;2.75;2.25;;;;;11.40;40.21;98392.91;6274128;22;102236;-77
2022/01/22 00:52:42;;;;;;;;;2.00;1.25;;;;;11.39;40.39;98385.84;6242254;22;102209;-77
2022/01/22 00:55:10;;;;;;;;;2.50;2.00;;;;;11.40;40.41;98387.50;6276270;22;102472;-76
2022/01/22 00:57:36;;;;;;;;;3.50;2.50;;;;;11.40;40.58;98392.09;6300687;22;104159;-76
2022/01/22 01:00:05;;;;;;;;;1.75;1.50;;;;;11.39;40.19;98391.25;6305523;22;101977;-77
2022/01/22 01:02:33;;;;;;;;;2.25;1.00;;;;;11.39;40.42;98388.53;6271668;22;105505;-77
2022/01/22 01:05:01;;;;;;;;;2.00;2.00;;;;;11.37;40.17;98376.28;6248989;22;102095;-76
2022/01/22 01:07:30;;;;;;;;;2.00;2.00;;;;;11.43;40.39;98397.09;6253756;22;103259;-76
2022/01/22 01:09:59;;;;;;;;;2.75;1.75;;;;;11.43;40.17;98387.09;6266471;22;105531;-76
2022/01/22 01:12:27;;;;;;;;;2.00;1.50;;;;;11.46;40.35;98392.09;6290943;22;102425;-76
2022/01/22 01:34:24;;;;;;;;;1.00;1.00;;;;;11.40;40.22;98392.91;6296350;22;102184;-77
2022/01/22 01:36:51;;;;;;;;;2.00;0.50;;;;;11.42;40.58;98401.69;6266996;22;102224;-76
2022/01/22 01:39:32;;;;;;;;;1.00;1.00;;;;;11.44;40.36;98407.69;6265697;22;103312;-76
2022/01/22 01:42:07;;;;;;;;;2.25;1.00;;;;;11.43;40.13;98391.69;6292523;22;104781;-76
2022/01/22 01:44:34;;;;;;;;;1.50;1.50;;;;;11.42;40.45;98401.69;6291751;22;108296;-76
2022/01/22 01:47:03;;;;;;;;;2.00;2.00;;;;;11.42;40.60;98395.41;6290113;22;102393;-76
2022/01/22 01:49:31;;;;;;;;;1.00;1.00;;;;;11.42;40.41;98396.25;6292161;22;104016;-76
2022/01/22 01:52:01;;;;;;;;;1.00;1.00;;;;;11.41;40.13;98399.16;6298287;22;102195;-76
2022/01/22 01:59:56;;;;;;;;;1.00;1.00;;;;;11.40;40.25;98409.16;6269209;22;108898;-76
2022/01/22 02:02:25;;;;;;;;;1.00;1.00;;;;;11.38;40.53;98389.59;6251043;22;102390;-76
2022/01/22 02:04:52;;;;;;;;;2.00;2.00;;;;;11.37;40.24;98393.34;6237560;22;102446;-76
2022/01/22 02:07:19;;;;;;;;;1.00;1.00;;;;;11.37;40.19;98392.50;6242166;22;102200;-76
2022/01/22 02:09:46;;;;;;;;;2.00;1.00;;;;;11.37;40.15;98390.63;6200414;22;103963;-76
2022/01/22 02:12:23;;;;;;;;;1.00;0.00;;;;;11.34;40.68;98392.94;6248879;22;103635;-76
2022/01/22 02:25:56;;;;;;;;;1.00;1.00;;;;;11.31;40.36;98388.78;6286690;22;102572;-76
2022/01/22 02:28:23;;;;;;;;;1.75;0.75;;;;;11.33;40.69;98389.41;6304389;22;102340;-76
2022/01/22 02:30:56;;;;;;;;;1.75;1.00;;;;;11.32;40.42;98373.38;6301121;22;104196;-76
2022/01/22 02:36:04;;;;;;;;;1.00;1.00;;;;;11.30;40.21;98381.69;6275536;22;102163;-77
2022/01/22 02:38:50;;;;;;;;;1.00;1.00;;;;;11.29;40.59;98385.47;6264183;22;102601;-76
2022/01/22 02:41:20;;;;;;;;;1.25;0.75;;;;;11.28;40.61;98380.25;6281871;22;108844;-76
2022/01/22 02:43:47;;;;;;;;;2.25;1.25;;;;;11.29;40.61;98387.34;6299560;22;102033;-76
2022/01/22 02:46:17;;;;;;;;;2.00;2.00;;;;;11.26;40.51;98388.56;6281373;22;102171;-76
2022/01/22 02:48:45;;;;;;;;;2.00;1.00;;;;;11.27;40.62;98387.53;6259332;22;102504;-76
2022/01/22 02:51:12;;;;;;;;;0.50;0.00;;;;;11.26;40.83;98391.28;6289763;22;104117;-76
2022/01/22 02:53:39;;;;;;;;;1.00;1.00;;;;;11.28;40.08;98394.63;6283677;22;102039;-76
2022/01/22 02:56:07;;;;;;;;;0.00;0.00;;;;;11.27;40.40;98394.81;6298098;22;102194;-76
2022/01/22 02:58:34;;;;;;;;;2.00;1.00;;;;;11.30;40.69;98386.28;6302711;22;102074;-76
2022/01/22 03:01:01;;;;;;;;;0.00;0.00;;;;;11.27;40.57;98390.22;6298980;22;104085;-76
2022/01/22 03:03:28;;;;;;;;;1.00;0.75;;;;;11.28;40.34;98389.19;6306427;22;102402;-76
2022/01/22 03:05:56;;;;;;;;;0.00;0.00;;;;;11.25;40.22;98383.38;6306689;22;102409;-76
2022/01/22 03:08:28;;;;;;;;;1.75;1.00;;;;;11.27;40.30;98382.13;6300102;22;102571;-76
2022/01/22 03:10:55;;;;;;;;;1.00;1.00;;;;;11.33;40.40;98396.69;6289271;22;104159;-76
2022/01/22 03:14:10;;;;;;;;;1.00;0.25;;;;;11.38;40.27;98400.44;6306519;22;102510;-76
2022/01/22 03:19:18;;;;;;;;;0.00;0.00;;;;;11.46;39.97;98405.63;6219123;22;102549;-76
2022/01/22 03:22:00;;;;;;;;;1.50;1.00;;;;;11.51;40.36;98405.81;6296785;22;103966;-76
2022/01/22 03:27:23;;;;;;;;;0.75;0.75;;;;;11.60;39.93;98409.13;6298028;22;101907;-76
2022/01/22 03:29:51;;;;;;;;;1.75;1.00;;;;;11.66;40.11;98415.59;6303288;22;102234;-77
2022/01/22 03:32:18;;;;;;;;;1.00;0.00;;;;;11.71;40.05;98421.19;6310350;22;103955;-77
2022/01/22 03:35:08;;;;;;;;;1.00;0.50;;;;;11.73;39.81;98409.13;6301721;22;102235;-76
2022/01/22 03:37:35;;;;;;;;;1.50;1.00;;;;;11.76;39.87;98415.97;6303577;22;102355;-83
2022/01/22 03:40:02;;;;;;;;;1.00;0.00;;;;;11.80;39.68;98419.91;6275650;22;102531;-83
2022/01/22 03:42:29;;;;;;;;;0.00;0.00;;;;;11.81;39.82;98418.88;6269056;22;104154;-83
2022/01/22 03:44:56;;;;;;;;;1.00;0.75;;;;;11.83;39.83;98430.34;6289179;22;102461;-83
2022/01/22 03:47:23;;;;;;;;;1.00;1.00;;;;;11.83;40.07;98442.03;6301955;22;105192;-83
2022/01/22 03:49:51;;;;;;;;;1.25;0.50;;;;;11.86;40.02;98436.16;6308939;22;102176;-83
2022/01/22 03:52:18;;;;;;;;;0.75;0.00;;;;;11.88;40.06;98439.50;6304726;22;104001;-84
2022/01/22 03:54:45;;;;;;;;;1.00;0.00;;;;;11.91;40.14;98432.81;6300157;22;102199;-82
2022/01/22 03:57:12;;;;;;;;;1.00;0.00;;;;;11.93;39.76;98438.88;6304160;22;102353;-83
2022/01/22 03:59:40;;;;;;;;;1.00;1.00;;;;;11.95;39.63;98440.31;6310116;22;102299;-83
2022/01/22 04:04:41;;;;;;;;;1.25;0.25;;;;;11.95;39.63;98439.47;6276680;22;101944;-83
2022/01/22 04:09:57;;;;;;;;;1.00;0.75;;;;;11.96;39.89;98447.41;6309396;22;102193;-83
2022/01/22 04:12:35;;;;;;;;;1.25;1.25;;;;;11.98;39.90;98444.47;6302529;22;104230;-83
2022/01/22 04:15:04;;;;;;;;;0.75;0.50;;;;;11.98;39.29;98455.28;6277643;22;102441;-83
2022/01/22 04:25:34;;;;;;;;;0.00;0.00;;;;;12.02;39.38;98461.97;6306420;22;102441;-83
2022/01/22 04:28:01;;;;;;;;;0.00;0.00;;;;;12.03;39.65;98463.63;6305842;22;102112;-83
2022/01/22 04:30:28;;;;;;;;;0.50;0.00;;;;;12.03;39.52;98463.63;6301402;22;102046;-83
2022/01/22 04:32:55;;;;;;;;;0.00;0.00;;;;;12.02;39.80;98464.69;6304276;22;104076;-83
2022/01/22 04:35:22;;;;;;;;;0.50;0.00;;;;;12.03;39.71;98463.63;6308768;22;102688;-83
2022/01/22 04:37:49;;;;;;;;;0.00;0.00;;;;;12.00;39.96;98470.31;6301224;22;101808;-83
2022/01/22 04:40:17;;;;;;;;;0.50;0.50;;;;;12.00;39.49;98470.31;6305152;22;102369;-83
2022/01/22 04:42:44;;;;;;;;;0.00;0.00;;;;;12.00;39.69;98478.44;6307234;22;109315;-83
2022/01/22 04:48:40;;;;;;;;;0.00;0.00;;;;;12.01;39.97;98477.41;6166823;22;102565;-83
2022/01/22 04:56:39;;;;;;;;;1.00;1.00;;;;;12.03;39.19;98482.59;6293252;22;102110;-84
2022/01/22 04:59:06;;;;;;;;;0.00;0.00;;;;;12.03;40.04;98490.72;6302581;22;102111;-83
2022/01/22 05:01:33;;;;;;;;;0.25;0.00;;;;;12.02;39.71;98480.94;6305998;22;102457;-83
2022/01/22 05:04:00;;;;;;;;;1.00;1.00;;;;;11.99;39.64;98490.31;6293308;22;104183;-83
2022/01/22 05:06:29;;;;;;;;;0.00;0.00;;;;;11.96;39.13;98493.47;6295804;22;101968;-83
2022/01/22 05:08:57;;;;;;;;;0.00;0.00;;;;;11.95;39.72;98499.09;6301725;22;102266;-84
2022/01/22 05:11:24;;;;;;;;;1.00;1.00;;;;;11.94;39.47;98497.41;6297001;22;102528;-83
2022/01/22 05:13:51;;;;;;;;;1.00;0.50;;;;;11.90;39.80;98504.31;6297181;22;104001;-83
2022/01/22 05:16:19;;;;;;;;;0.00;0.00;;;;;11.87;39.92;98502.88;6296978;22;102314;-83
2022/01/22 05:18:54;;;;;;;;;0.00;0.00;;;;;11.86;39.94;98514.75;6288362;22;102030;-83
2022/01/22 05:21:22;;;;;;;;;0.25;0.25;;;;;11.86;39.52;98505.78;6292693;22;103389;-83
2022/01/22 05:23:50;;;;;;;;;1.00;0.75;;;;;11.85;39.96;98504.94;6291123;22;103987;-83
2022/01/22 05:39:41;;;;;;;;;1.00;1.00;;;;;11.75;39.87;98531.66;6267728;22;103595;-79
2022/01/22 05:42:09;;;;;;;;;1.00;1.00;;;;;11.74;39.81;98543.53;6307908;22;102351;-84
2022/01/22 05:44:36;;;;;;;;;1.00;1.00;;;;;11.74;39.55;98539.97;6276784;22;110646;-83
2022/01/22 05:47:05;;;;;;;;;1.00;0.00;;;;;11.73;39.70;98549.97;6306063;22;102369;-84
2022/01/22 05:49:36;;;;;;;;;0.00;0.00;;;;;11.71;39.64;98543.88;6300729;22;102393;-83
2022/01/22 05:52:05;;;;;;;;;0.75;0.75;;;;;11.69;40.10;98547.84;6280911;22;102566;-83
2022/01/22 05:54:51;;;;;;;;;1.00;0.00;;;;;11.70;39.79;98549.53;6278278;22;104238;-83
2022/01/22 06:00:06;;;;;;;;;1.00;0.75;;;;;11.67;40.17;98555.34;6281851;22;102440;-83
2022/01/22 06:02:33;;;;;;;;;1.00;1.00;;;;;11.66;40.09;98564.53;6305948;22;102743;-83
2022/01/22 06:05:00;;;;;;;;;0.00;0.00;;;;;11.62;39.93;98567.63;6308008;22;104268;-84
2022/01/22 06:07:27;;;;;;;;;0.25;0.25;;;;;11.62;39.92;98564.94;6304429;22;101968;-84
2022/01/22 06:10:15;;;;;;;;;0.00;0.00;;;;;11.62;39.88;98570.34;6310186;22;102167;-83
2022/01/22 06:12:58;;;;;;;;;1.00;1.00;;;;;11.59;40.24;98573.50;6305383;22;109820;-79
2022/01/22 06:15:25;;;;;;;;;0.00;0.00;;;;;11.58;39.91;98581.81;6299167;22;108805;-83
2022/01/22 06:17:52;;;;;;;;;0.00;0.00;;;;;11.55;39.76;98584.94;6311976;22;102476;-83
2022/01/22 06:20:19;;;;;;;;;1.00;1.00;;;;;11.54;40.22;98583.25;6297970;22;102541;-83
2022/01/22 06:22:46;;;;;;;;;1.00;0.00;;;;;11.54;40.04;98594.94;6308085;22;102094;-82
2022/01/22 06:25:13;;;;;;;;;0.00;0.00;;;;;11.50;40.17;98596.41;6308561;22;103327;-83
2022/01/22 06:27:40;;;;;;;;;0.00;0.00;;;;;11.49;39.95;98597.44;6313724;22;102315;-83
2022/01/22 06:30:08;;;;;;;;;0.00;0.00;;;;;11.49;40.04;98602.00;6300737;22;102068;-83
2022/01/22 06:32:35;;;;;;;;;0.00;0.00;;;;;11.49;40.17;98619.09;6307302;22;102065;-84
2022/01/22 06:35:02;;;;;;;;;0.00;0.00;;;;;11.50;40.11;98620.75;6307123;22;104021;-83
2022/01/22 06:37:29;;;;;;;;;1.00;0.00;;;;;11.51;39.84;98622.44;6308521;22;102128;-83
2022/01/22 06:42:33;;;;;;;;;1.25;1.00;;;;;11.52;39.46;98626.81;6309403;22;102097;-83
2022/01/22 06:45:01;;;;;;;;;0.00;0.00;;;;;11.55;39.76;98631.81;6297388;22;103908;-84
2022/01/22 06:47:29;;;;;;;;;1.00;1.00;;;;;11.56;39.67;98635.34;6293556;22;102067;-83
2022/01/22 06:49:57;;;;;;;;;1.00;1.00;;;;;11.55;40.25;98637.22;6305134;22;103906;-83
2022/01/22 06:52:24;;;;;;;;;1.75;1.75;;;;;11.55;39.46;98645.34;6302064;22;102290;-83
2022/01/22 06:54:51;;;;;;;;;0.00;0.00;;;;;11.55;39.73;98656.19;6304659;22;103974;-83
2022/01/22 06:57:18;;;;;;;;;1.00;1.00;;;;;11.54;39.58;98646.38;6309426;22;102066;-83
2022/01/22 06:59:45;;;;;;;;;1.75;1.00;;;;;11.52;39.70;98656.59;6297384;22;102080;-83
2022/01/22 07:02:14;;;;;;;;;4.00;2.00;;;;;11.52;40.03;98656.59;6306630;22;102540;-83
2022/01/22 07:04:41;;;;;;;;;1.50;1.00;;;;;11.51;39.84;98660.34;6316027;22;104264;-83
2022/01/22 07:07:12;;;;;;;;;1.25;0.50;;;;;11.53;39.87;98669.09;6308656;22;102125;-83
2022/01/22 07:09:39;;;;;;;;;1.00;1.00;;;;;11.46;39.74;98667.41;6308543;22;102474;-83
2022/01/22 07:12:06;;;;;;;;;2.50;1.75;;;;;11.47;39.94;98680.75;6308717;22;102439;-83
2022/01/22 07:14:33;;;;;;;;;2.00;1.75;;;;;11.47;39.64;98675.34;6300463;22;105359;-83
2022/01/22 07:17:00;;;;;;;;;1.25;1.00;;;;;11.48;40.16;98676.19;6296219;22;102321;-84
2022/01/22 07:19:29;;;;;;;;;1.00;1.00;;;;;11.48;39.84;98682.41;6303794;22;102482;-83
2022/01/22 07:22:02;;;;;;;;;1.50;1.25;;;;;11.51;39.71;98681.16;6299070;22;102667;-83
2022/01/22 07:24:37;;;;;;;;;1.75;1.75;;;;;11.51;39.37;98687.44;6305239;22;103950;-84
2022/01/22 07:27:04;;;;;;;;;2.50;0.75;;;;;11.52;39.82;98672.84;6278796;22;102325;-82
2022/01/22 07:29:31;;;;;;;;;2.25;1.75;;;;;11.51;39.99;98676.59;6303377;22;102493;-83
2022/01/22 07:32:01;;;;;;;;;2.00;0.00;;;;;11.49;39.26;98681.38;6310972;22;102073;-76
2022/01/22 07:34:28;;;;;;;;;4.00;1.00;;;;;11.49;39.79;98683.22;6307229;22;103960;-77
2022/01/22 07:36:56;;;;;;;;;2.00;2.00;;;;;11.49;40.03;98689.50;6307234;22;102505;-77
2022/01/22 07:39:23;;;;;;;;;3.00;3.00;;;;;11.49;39.63;98699.47;6277939;22;102010;-76
2022/01/22 07:41:51;;;;;;;;;0.25;0.25;;;;;11.50;40.00;98702.00;6310868;22;102183;-76
2022/01/22 07:44:18;;;;;;;;;3.50;2.00;;;;;11.49;39.80;98691.34;6299909;22;104049;-76
2022/01/22 07:46:45;;;;;;;;;2.00;1.00;;;;;11.47;40.18;98691.59;6307152;22;102156;-76
2022/01/22 07:49:14;;;;;;;;;2.00;1.00;;;;;11.46;40.09;98706.16;6296509;22;103027;-77
2022/01/22 07:51:41;;;;;;;;;2.75;2.00;;;;;11.47;39.79;98701.56;6307060;22;102258;-77
2022/01/22 07:54:08;;;;;;;;;2.00;1.50;;;;;11.47;40.29;98702.41;6310290;22;108825;-77
2022/01/22 07:56:35;;;;;;;;;2.00;1.50;;;;;11.47;39.65;98697.00;6303673;22;102191;-76
2022/01/22 07:59:02;;;;;;;;;1.00;1.00;;;;;11.44;39.67;98689.25;6309908;22;102108;-76
2022/01/22 08:01:29;;;;;;;;;2.00;2.00;;;;;11.44;39.62;98702.81;6310274;22;102002;-77
2022/01/22 08:03:56;;;;;;;;;3.00;2.00;;;;;11.46;39.71;98706.16;6302472;22;104063;-76
2022/01/22 08:06:23;;;;;;;;;2.50;2.00;;;;;11.49;39.76;98711.16;6308633;22;102448;-76
2022/01/22 08:08:50;;;;;;;;;3.75;2.00;;;;;11.48;39.90;98712.19;6299918;22;102407;-77
2022/01/22 08:11:17;;;;;;;;;2.00;2.00;;;;;11.50;39.68;98712.81;6306387;22;102217;-77
2022/01/22 08:13:44;;;;;;;;;2.00;2.00;;;;;11.52;39.83;98716.19;6306457;22;104001;-77
2022/01/22 08:16:11;;;;;;;;;2.00;2.00;;;;;11.54;39.54;98716.78;6311631;22;102272;-76
2022/01/22 08:18:38;;;;;;;;;2.00;2.00;;;;;11.56;39.66;98722.00;6306352;22;104062;-77
2022/01/22 08:21:05;;;;;;;;;2.00;2.00;;;;;11.55;39.57;98710.34;6310029;22;102398;-77
2022/01/22 08:23:33;;;;;;;;;2.50;2.50;;;;;11.56;39.53;98717.44;6295669;22;103979;-76
2022/01/22 08:26:04;;;;;;;;;3.50;1.50;;;;;11.57;39.13;98724.50;6302824;22;102345;-76
2022/01/22 08:31:24;;;;;;;;;2.00;2.00;;;;;11.60;39.34;98717.84;6280137;22;102438;-76
2022/01/22 08:36:40;;;;;;;;;2.00;2.00;;;;;11.60;39.86;98739.53;6298454;22;102786;-76
2022/01/22 08:39:07;;;;;;;;;3.00;2.00;;;;;11.62;39.68;98754.50;6299545;22;102164;-76
2022/01/22 08:41:35;;;;;;;;;3.00;2.25;;;;;11.62;39.41;98751.81;6304477;22;102461;-77
2022/01/22 08:44:02;;;;;;;;;2.75;2.00;;;;;11.62;39.53;98759.94;6303598;22;103976;-76
2022/01/22 08:46:30;;;;;;;;;2.00;1.75;;;;;11.63;39.52;98756.19;6305887;22;102400;-76
2022/01/22 08:48:57;;;;;;;;;3.75;2.00;;;;;11.61;39.21;98758.28;6302360;22;102202;-76
2022/01/22 08:51:24;;;;;;;;;2.00;2.00;;;;;11.61;39.63;98765.56;6294751;22;102482;-77
2022/01/22 08:53:51;;;;;;;;;2.00;1.25;;;;;11.61;39.38;98768.28;6308875;22;103930;-77
2022/01/22 08:56:18;;;;;;;;;2.00;2.00;;;;;11.61;39.67;98774.53;6304412;22;102113;-77
2022/01/22 08:58:45;;;;;;;;;3.50;2.50;;;;;11.62;39.61;98787.00;6300241;22;102300;-77
2022/01/22 09:01:13;;;;;;;;;2.00;2.00;;;;;11.62;39.33;98797.84;6313815;22;102204;-77
2022/01/22 09:03:40;;;;;;;;;3.00;2.00;;;;;11.63;39.81;98798.69;6297906;22;108606;-76
2022/01/22 09:06:07;;;;;;;;;1.25;1.25;;;;;11.64;39.71;98800.38;6306933;22;102430;-76
2022/01/22 09:08:34;;;;;;;;;2.00;2.00;;;;;11.64;39.24;98805.78;6304635;22;102124;-76
2022/01/22 09:11:02;;;;;;;;;3.50;2.75;;;;;11.62;39.50;98797.84;6303693;22;102114;-77
2022/01/22 09:13:29;;;;;;;;;2.00;2.00;;;;;11.62;39.34;98797.84;6304048;22;110122;-77
2022/01/22 09:15:56;;;;;;;;;3.00;3.00;;;;;11.65;39.45;98791.22;6304515;22;102615;-77
2022/01/22 09:18:23;;;;;;;;;2.75;2.00;;;;;11.64;39.48;98795.78;6301898;22;102504;-77
2022/01/22 09:23:17;;;;;;;;;4.75;4.00;;;;;11.64;39.58;98794.94;6304614;22;103989;-76
2022/01/22 09:25:45;;;;;;;;;5.25;3.00;;;;;11.64;39.80;98798.50;6308177;22;102087;-76
2022/01/22 09:28:13;;;;;;;;;3.00;2.75;;;;;11.67;39.31;98801.81;6312693;22;102454;-77
2022/01/22 09:30:41;;;;;;;;;2.00;2.00;;;;;11.67;39.78;98805.38;6310994;22;102458;-76
2022/01/22 09:33:08;;;;;;;;;3.00;2.25;;;;;11.68;39.45;98798.06;6303346;22;104018;-76
2022/01/22 09:35:35;;;;;;;;;2.00;2.00;;;;;11.69;39.08;98808.72;6284432;22;102493;-76
2022/01/22 09:38:02;;;;;;;;;3.00;2.00;;;;;11.70;38.96;98809.56;6275174;22;102118;-76
2022/01/22 09:40:29;;;;;;;;;1.75;1.75;;;;;11.68;39.76;98812.47;6308193;22;102367;-77
2022/01/22 09:42:58;;;;;;;;;1.00;1.00;;;;;11.70;39.31;98814.97;6282315;22;104096;-76
2022/01/22 09:45:29;;;;;;;;;3.00;3.00;;;;;11.70;39.67;98810.41;6308300;22;102217;-76
2022/01/22 09:47:58;;;;;;;;;2.75;2.00;;;;;11.72;39.07;98807.47;6302519;22;102381;-76
2022/01/22 09:50:25;;;;;;;;;2.50;1.75;;;;;11.71;39.70;98806.63;6281782;22;102225;-76
2022/01/22 09:52:52;;;;;;;;;4.00;2.50;;;;;11.71;39.65;98811.25;6297802;22;103975;-76
2022/01/22 09:55:21;;;;;;;;;2.50;2.50;;;;;11.70;39.83;98821.25;6306433;22;102089;-77
2022/01/22 09:57:48;;;;;;;;;3.75;3.00;;;;;11.70;40.29;98813.09;6269195;22;102471;-77
2022/01/22 10:00:18;;;;;;;;;5.75;4.00;;;;;11.74;40.28;98816.28;6308599;22;103628;-77
2022/01/22 10:02:50;;;;;;;;;4.50;3.75;;;;;11.75;40.34;98821.50;6306607;22;104038;-77
2022/01/22 10:05:36;;;;;;;;;8.00;7.00;;;;;11.80;40.26;98832.53;6302275;22;102396;-77
2022/01/22 10:08:28;;;;;;;;;6.25;6.00;;;;;11.82;39.68;98845.88;6304018;22;102250;-77
2022/01/22 10:10:56;;;;;;;;;5.75;4.00;;;;;11.82;40.02;98854.84;6278912;22;102643;-77
2022/01/22 10:13:43;;;;;;;;;2.50;2.00;;;;;11.81;39.37;98845.03;6273552;22;103948;-76
2022/01/22 10:16:24;;;;;;;;;8.00;6.00;;;;;11.81;40.38;98844.22;6279418;22;102171;-76
2022/01/22 10:19:26;;;;;;;;;9.50;9.50;;;;;11.97;43.52;98865.53;6309172;22;102545;-76
2022/01/22 10:21:58;;;;;;;;;20.75;18.25;;;;;12.13;46.23;98861.63;6118776;22;102481;-76
2022/01/22 10:24:44;;;;;;;;;25.75;22.75;;;;;12.30;47.92;98869.16;6273980;22;103844;-76
2022/01/22 10:29:56;;;;;;;;;34.25;32.25;;;;;12.59;48.30;98875.25;6306648;22;102315;-76
2022/01/22 10:32:35;;;;;;;;;37.50;34.25;;;;;12.71;48.65;98870.88;6267602;22;102436;-76
2022/01/22 10:35:09;;;;;;;;;40.25;36.00;;;;;12.84;48.91;98873.59;6280744;22;104599;-76
2022/01/22 10:37:36;;;;;;;;;43.50;38.00;;;;;12.95;47.94;98864.84;6312354;22;102231;-76
2022/01/22 10:40:23;;;;;;;;;46.00;37.50;;;;;13.10;48.17;98861.91;6305591;22;102636;-76
2022/01/22 10:42:50;;;;;;;;;43.00;36.00;;;;;13.23;48.02;98861.91;6281096;22;102129;-76
2022/01/22 10:45:26;;;;;;;;;41.00;35.25;;;;;13.36;47.76;98854.59;6314097;22;104006;-76
2022/01/22 10:48:12;;;;;;;;;34.25;33.25;;;;;13.51;47.30;98858.94;6310690;22;102382;-76
2022/01/22 10:50:39;;;;;;;;;37.00;35.00;;;;;13.63;47.73;98849.91;6307156;22;102172;-76
2022/01/22 10:53:06;;;;;;;;;39.50;33.75;;;;;13.74;47.32;98848.38;6282662;22;102547;-76
2022/01/22 10:55:33;;;;;;;;;38.50;34.00;;;;;13.85;46.82;98853.16;6312884;22;104121;-76
2022/01/22 10:58:07;;;;;;;;;36.75;32.75;;;;;13.97;47.33;98861.44;6303731;22;102322;-76
2022/01/22 11:00:35;;;;;;;;;36.25;33.50;;;;;14.07;47.06;98864.53;6309537;22;102502;-76
2022/01/22 11:03:21;;;;;;;;;38.25;33.00;;;;;14.18;46.03;98856.53;6313100;22;102470;-76
2022/01/22 11:05:48;;;;;;;;;35.75;31.25;;;;;14.27;46.02;98854.41;6295844;22;107910;-76
2022/01/22 11:08:16;;;;;;;;;39.75;29.00;;;;;14.35;46.38;98843.25;6307436;22;104099;-76
2022/01/22 11:10:44;;;;;;;;;34.00;31.00;;;;;14.45;46.37;98857.25;6314689;22;102574;-76
2022/01/22 11:13:11;;;;;;;;;32.50;28.00;;;;;14.53;45.52;98854.25;6251503;22;102060;-76
2022/01/22 11:15:39;;;;;;;;;31.50;29.50;;;;;14.63;45.70;98856.50;6295448;22;103991;-76
2022/01/22 11:18:07;;;;;;;;;27.00;25.75;;;;;14.71;45.62;98867.13;6307070;22;102461;-76
2022/01/22 11:20:34;;;;;;;;;30.00;28.75;;;;;14.78;45.13;98862.44;6251004;22;102518;-76
2022/01/22 11:23:01;;;;;;;;;28.75;25.75;;;;;14.86;45.10;98859.44;6299108;22;102300;-76
2022/01/22 11:25:28;;;;;;;;;33.75;29.50;;;;;14.93;44.91;98871.13;6249011;22;104164;-76
2022/01/22 11:27:55;;;;;;;;;29.50;28.00;;;;;15.01;45.08;98884.44;6277765;22;102335;-76
2022/01/22 11:30:25;;;;;;;;;30.00;28.00;;;;;15.07;44.97;98883.56;6304462;22;102622;-76
2022/01/22 11:32:54;;;;;;;;;27.75;25.75;;;;;15.13;44.72;98892.72;6256584;22;102380;-76
2022/01/22 11:35:53;;;;;;;;;26.75;24.25;;;;;15.21;44.33;98899.78;6277968;22;105046;-76
2022/01/22 11:38:26;;;;;;;;;32.75;26.50;;;;;15.27;43.67;98898.88;6308373;22;102562;-76
2022/01/22 11:41:07;;;;;;;;;31.50;28.50;;;;;15.32;44.33;98901.75;6285972;22;102598;-76
2022/01/22 11:46:30;;;;;;;;;26.00;23.50;;;;;15.41;43.89;98905.88;6268043;22;108646;-76
2022/01/22 11:49:25;;;;;;;;;28.00;25.25;;;;;15.46;43.58;98904.16;6294374;22;102180;-76
2022/01/22 11:52:07;;;;;;;;;28.50;26.75;;;;;15.52;43.56;98903.28;6301912;22;102337;-76
2022/01/22 11:54:59;;;;;;;;;26.25;22.75;;;;;15.56;43.44;98925.47;6309273;22;103081;-76
2022/01/22 11:57:30;;;;;;;;;25.25;24.25;;;;;15.60;43.59;98918.50;6299346;22;109111;-76
2022/01/22 12:00:17;;;;;;;;;28.50;23.50;;;;;15.63;43.54;98928.94;6309507;22;102402;-76
2022/01/22 12:02:44;;;;;;;;;26.25;24.00;;;;;15.64;43.20;98922.44;6281132;22;102632;-76
2022/01/22 12:05:11;;;;;;;;;26.50;23.25;;;;;15.67;43.05;98930.16;6282703;22;102118;-76
2022/01/22 12:07:38;;;;;;;;;21.75;20.25;;;;;15.69;43.31;98925.34;6305170;22;103859;-76
2022/01/22 12:10:19;;;;;;;;;26.00;21.00;;;;;15.73;43.42;98934.72;6282894;22;102159;-76
2022/01/22 12:15:20;;;;;;;;;22.00;20.50;;;;;15.76;42.74;98950.63;6276539;22;102724;-76
2022/01/22 12:17:58;;;;;;;;;22.75;21.75;;;;;15.80;42.71;98949.13;6308688;22;103770;-76
2022/01/22 12:21:30;;;;;;;;;24.75;21.50;;;;;15.80;42.22;98957.31;6306567;22;102487;-76
2022/01/22 12:23:31;;;;;;;;;23.25;21.00;;;;;15.82;42.61;98968.81;6303543;22;102126;-76
2022/01/22 12:26:00;;;;;;;;;22.25;20.50;;;;;15.85;42.62;98973.00;6308195;22;102441;-76
2022/01/22 12:28:40;;;;;;;;;26.00;22.00;;;;;15.85;42.72;98984.72;6304213;22;104116;-76
2022/01/22 12:31:18;;;;;;;;;22.00;21.00;;;;;15.88;42.13;98987.00;6299021;22;102270;-76
2022/01/22 12:33:51;;;;;;;;;19.50;16.50;;;;;15.89;41.87;98994.16;6302248;22;102993;-76
2022/01/22 12:36:28;;;;;;;;;20.50;19.25;;;;;15.89;42.60;99002.31;6270504;22;103666;-76
2022/01/22 12:39:06;;;;;;;;;19.75;18.00;;;;;15.92;42.22;99001.88;6307397;22;103813;-76
2022/01/22 12:41:48;;;;;;;;;20.25;20.25;;;;;15.92;42.40;99006.47;6266279;22;102183;-76
2022/01/22 12:46:51;;;;;;;;;22.75;18.75;;;;;15.92;42.30;99007.31;6303045;22;102811;-75
2022/01/22 12:49:18;;;;;;;;;22.50;20.25;;;;;15.94;42.14;99009.84;6297176;22;103909;-77
2022/01/22 12:51:45;;;;;;;;;21.50;19.00;;;;;15.95;41.76;99006.84;6277179;22;102216;-77
2022/01/22 12:54:12;;;;;;;;;21.50;21.00;;;;;15.93;41.53;99009.00;6297584;22;102270;-78
2022/01/22 12:57:09;;;;;;;;;22.75;20.75;;;;;15.89;41.76;99017.84;6300594;22;102433;-77
2022/01/22 13:00:07;;;;;;;;;17.75;16.50;;;;;15.82;41.28;99023.34;6289006;22;103289;-78
2022/01/22 13:02:50;;;;;;;;;21.50;20.25;;;;;15.75;41.79;99019.88;6292366;22;102592;-78
2022/01/22 13:05:19;;;;;;;;;22.25;19.75;;;;;15.68;41.31;99024.53;6265332;22;102067;-78
2022/01/22 13:07:53;;;;;;;;;20.75;18.50;;;;;15.62;41.24;99030.91;6300846;22;102315;-77
2022/01/22 13:10:27;;;;;;;;;21.25;17.50;;;;;15.57;40.88;99026.09;6258529;22;108939;-77
2022/01/22 13:12:57;;;;;;;;;21.50;20.00;;;;;15.51;41.35;99037.06;6293691;22;101972;-78
2022/01/22 13:15:24;;;;;;;;;18.75;18.00;;;;;15.46;41.21;99042.28;6301455;22;103770;-78
2022/01/22 13:17:59;;;;;;;;;16.50;15.25;;;;;15.42;41.23;99041.06;6304636;22;102153;-77
2022/01/22 13:20:35;;;;;;;;;18.75;15.75;;;;;15.36;41.41;99053.69;6276981;22;104203;-77
2022/01/22 13:23:15;;;;;;;;;17.75;15.00;;;;;15.35;40.52;99059.38;6297528;22;102883;-77